Terminal Aerodrome Forecast
Issued by NWS Midland/Odessa, TX

Home | Current Version | Previous Version | Text Only | Print | Product List | Glossary On
Versions: 1 2 3 4 5 6 7 8 9 10 11 12 13 14 15 16 17 18 19 20 21 22 23 24
000
FTUS44 KMAF 221207 AAB
TAFMAF
TAF AMD
KMAF 221207Z 2212/2312 12010KT 3SM BR OVC007
     FM221600 12009KT P6SM OVC012
     FM221900 13008KT P6SM BKN050 BKN250
      TEMPO 2301/2305 VRB25G35KT 3SM TSRA BKN020CB=

USA.gov is the U.S. government's official web portal to all federal, state and local government web resources and services.